sensor_id;sensor_type;location;lat;lon;timestamp;pressure;altitude;pressure_sealevel;temperature;humidity
9257;BME280;4665;51.368;6.782;2023-01-28T00:01:15;102538.19;;;1.89;100.00
9257;BME280;4665;51.368;6.782;2023-01-28T00:03:47;102536.47;;;1.88;100.00
9257;BME280;4665;51.368;6.782;2023-01-28T00:06:14;102533.91;;;1.86;100.00
9257;BME280;4665;51.368;6.782;2023-01-28T00:08:40;102546.03;;;1.91;100.00
9257;BME280;4665;51.368;6.782;2023-01-28T00:11:10;102551.34;;;1.89;100.00
9257;BME280;4665;51.368;6.782;2023-01-28T00:13:38;102536.03;;;1.77;100.00
9257;BME280;4665;51.368;6.782;2023-01-28T00:16:05;102536.88;;;1.77;100.00
9257;BME280;4665;51.368;6.782;2023-01-28T00:18:35;102515.25;;;1.69;100.00
9257;BME280;4665;51.368;6.782;2023-01-28T00:21:04;102513.44;;;1.71;100.00
9257;BME280;4665;51.368;6.782;2023-01-28T00:23:32;102529.72;;;1.81;100.00
9257;BME280;4665;51.368;6.782;2023-01-28T00:25:59;102535.94;;;1.78;100.00
9257;BME280;4665;51.368;6.782;2023-01-28T00:28:25;102532.50;;;1.76;100.00
9257;BME280;4665;51.368;6.782;2023-01-28T00:30:50;102542.94;;;1.79;100.00
9257;BME280;4665;51.368;6.782;2023-01-28T00:33:16;102542.16;;;1.76;100.00
9257;BME280;4665;51.368;6.782;2023-01-28T00:35:41;102543.94;;;1.75;100.00
9257;BME280;4665;51.368;6.782;2023-01-28T00:38:07;102535.63;;;1.62;100.00
9257;BME280;4665;51.368;6.782;2023-01-28T00:40:33;102536.59;;;1.60;100.00
9257;BME280;4665;51.368;6.782;2023-01-28T00:42:59;102544.44;;;1.61;100.00
9257;BME280;4665;51.368;6.782;2023-01-28T00:45:24;102540.09;;;1.60;100.00
9257;BME280;4665;51.368;6.782;2023-01-28T00:47:49;102532.31;;;1.57;100.00
9257;BME280;4665;51.368;6.782;2023-01-28T00:50:15;102537.56;;;1.57;100.00
9257;BME280;4665;51.368;6.782;2023-01-28T00:52:41;102523.72;;;1.52;100.00
9257;BME280;4665;51.368;6.782;2023-01-28T00:55:06;102524.91;;;1.43;100.00
9257;BME280;4665;51.368;6.782;2023-01-28T00:57:32;102540.47;;;1.50;100.00
9257;BME280;4665;51.368;6.782;2023-01-28T00:59:58;102539.66;;;1.47;100.00
9257;BME280;4665;51.368;6.782;2023-01-28T01:02:24;102529.25;;;1.44;100.00
9257;BME280;4665;51.368;6.782;2023-01-28T01:04:49;102514.56;;;1.39;100.00
9257;BME280;4665;51.368;6.782;2023-01-28T01:07:28;102532.91;;;1.40;100.00
9257;BME280;4665;51.368;6.782;2023-01-28T01:10:08;102527.81;;;1.36;100.00
9257;BME280;4665;51.368;6.782;2023-01-28T01:12:34;102534.06;;;1.32;100.00
9257;BME280;4665;51.368;6.782;2023-01-28T01:14:59;102533.06;;;1.36;100.00
9257;BME280;4665;51.368;6.782;2023-01-28T01:17:25;102550.28;;;1.44;100.00
9257;BME280;4665;51.368;6.782;2023-01-28T01:19:53;102538.19;;;1.39;100.00
9257;BME280;4665;51.368;6.782;2023-01-28T01:22:19;102539.00;;;1.41;100.00
9257;BME280;4665;51.368;6.782;2023-01-28T01:24:46;102513.97;;;1.31;100.00
9257;BME280;4665;51.368;6.782;2023-01-28T01:27:12;102517.56;;;1.28;100.00
9257;BME280;4665;51.368;6.782;2023-01-28T01:29:37;102524.38;;;1.34;100.00
9257;BME280;4665;51.368;6.782;2023-01-28T01:32:03;102519.97;;;1.34;100.00
9257;BME280;4665;51.368;6.782;2023-01-28T01:34:29;102520.94;;;1.32;100.00
9257;BME280;4665;51.368;6.782;2023-01-28T01:36:54;102524.25;;;1.37;100.00
9257;BME280;4665;51.368;6.782;2023-01-28T01:39:20;102522.66;;;1.33;100.00
9257;BME280;4665;51.368;6.782;2023-01-28T01:41:48;102529.78;;;1.29;100.00
9257;BME280;4665;51.368;6.782;2023-01-28T01:47:17;102550.63;;;1.34;100.00
9257;BME280;4665;51.368;6.782;2023-01-28T01:49:43;102549.91;;;1.30;100.00
9257;BME280;4665;51.368;6.782;2023-01-28T01:52:16;102561.13;;;1.34;100.00
9257;BME280;4665;51.368;6.782;2023-01-28T01:54:46;102554.06;;;1.36;100.00
9257;BME280;4665;51.368;6.782;2023-01-28T01:57:16;102549.13;;;1.26;100.00
9257;BME280;4665;51.368;6.782;2023-01-28T01:59:45;102545.50;;;1.31;100.00
9257;BME280;4665;51.368;6.782;2023-01-28T02:02:11;102534.44;;;1.21;100.00
9257;BME280;4665;51.368;6.782;2023-01-28T02:04:39;102543.91;;;1.25;100.00
9257;BME280;4665;51.368;6.782;2023-01-28T02:07:07;102536.84;;;1.27;100.00
9257;BME280;4665;51.368;6.782;2023-01-28T02:09:34;102530.03;;;1.21;100.00
9257;BME280;4665;51.368;6.782;2023-01-28T02:12:06;102547.41;;;1.25;100.00
9257;BME280;4665;51.368;6.782;2023-01-28T02:14:35;102568.44;;;1.25;100.00
9257;BME280;4665;51.368;6.782;2023-01-28T02:17:03;102547.81;;;1.13;100.00
9257;BME280;4665;51.368;6.782;2023-01-28T02:19:38;102555.53;;;1.18;100.00
9257;BME280;4665;51.368;6.782;2023-01-28T02:30:39;102566.56;;;1.02;100.00
9257;BME280;4665;51.368;6.782;2023-01-28T02:33:14;102562.16;;;1.03;100.00
9257;BME280;4665;51.368;6.782;2023-01-28T02:35:48;102568.25;;;1.03;100.00
9257;BME280;4665;51.368;6.782;2023-01-28T02:38:36;102569.22;;;1.01;100.00
9257;BME280;4665;51.368;6.782;2023-01-28T02:41:09;102571.81;;;1.02;100.00
9257;BME280;4665;51.368;6.782;2023-01-28T02:43:41;102572.84;;;0.97;100.00
9257;BME280;4665;51.368;6.782;2023-01-28T02:48:58;102575.59;;;0.92;100.00
9257;BME280;4665;51.368;6.782;2023-01-28T02:51:30;102569.66;;;0.87;100.00
9257;BME280;4665;51.368;6.782;2023-01-28T02:54:11;102562.06;;;0.78;100.00
9257;BME280;4665;51.368;6.782;2023-01-28T02:56:47;102577.53;;;0.87;100.00
9257;BME280;4665;51.368;6.782;2023-01-28T03:05:21;102577.50;;;0.89;100.00
9257;BME280;4665;51.368;6.782;2023-01-28T03:07:48;102580.13;;;0.89;100.00
9257;BME280;4665;51.368;6.782;2023-01-28T03:10:17;102561.09;;;0.80;100.00
9257;BME280;4665;51.368;6.782;2023-01-28T03:12:47;102578.44;;;0.86;100.00
9257;BME280;4665;51.368;6.782;2023-01-28T03:15:36;102574.25;;;0.79;100.00
9257;BME280;4665;51.368;6.782;2023-01-28T03:21:15;102570.94;;;0.74;100.00
9257;BME280;4665;51.368;6.782;2023-01-28T03:27:05;102568.38;;;0.72;100.00
9257;BME280;4665;51.368;6.782;2023-01-28T03:29:53;102575.31;;;0.73;100.00
9257;BME280;4665;51.368;6.782;2023-01-28T03:32:39;102565.00;;;0.67;100.00
9257;BME280;4665;51.368;6.782;2023-01-28T03:35:28;102569.13;;;0.76;100.00
9257;BME280;4665;51.368;6.782;2023-01-28T03:38:14;102564.72;;;0.76;100.00
9257;BME280;4665;51.368;6.782;2023-01-28T03:40:55;102567.47;;;0.73;100.00
9257;BME280;4665;51.368;6.782;2023-01-28T03:43:21;102576.16;;;0.75;100.00
9257;BME280;4665;51.368;6.782;2023-01-28T03:45:47;102571.81;;;0.74;100.00
9257;BME280;4665;51.368;6.782;2023-01-28T03:48:17;102575.19;;;0.78;100.00
9257;BME280;4665;51.368;6.782;2023-01-28T03:50:42;102566.47;;;0.77;100.00
9257;BME280;4665;51.368;6.782;2023-01-28T03:53:08;102551.91;;;0.67;100.00
9257;BME280;4665;51.368;6.782;2023-01-28T03:55:45;102561.41;;;0.71;100.00
9257;BME280;4665;51.368;6.782;2023-01-28T03:58:11;102573.63;;;0.72;100.00
9257;BME280;4665;51.368;6.782;2023-01-28T04:00:40;102559.00;;;0.63;100.00
9257;BME280;4665;51.368;6.782;2023-01-28T04:03:15;102564.13;;;0.68;100.00
9257;BME280;4665;51.368;6.782;2023-01-28T04:06:02;102580.56;;;0.73;100.00
9257;BME280;4665;51.368;6.782;2023-01-28T04:08:28;102574.63;;;0.68;100.00
9257;BME280;4665;51.368;6.782;2023-01-28T04:10:55;102570.38;;;0.64;100.00
9257;BME280;4665;51.368;6.782;2023-01-28T04:13:20;102564.31;;;0.62;100.00
9257;BME280;4665;51.368;6.782;2023-01-28T04:15:46;102570.47;;;0.61;100.00
9257;BME280;4665;51.368;6.782;2023-01-28T04:18:12;102588.75;;;0.62;100.00
9257;BME280;4665;51.368;6.782;2023-01-28T04:20:38;102591.09;;;0.72;100.00
9257;BME280;4665;51.368;6.782;2023-01-28T04:23:04;102591.06;;;0.73;100.00
9257;BME280;4665;51.368;6.782;2023-01-28T04:25:30;102591.06;;;0.73;100.00
9257;BME280;4665;51.368;6.782;2023-01-28T04:27:56;102593.66;;;0.75;100.00
9257;BME280;4665;51.368;6.782;2023-01-28T04:30:22;102586.81;;;0.69;100.00
9257;BME280;4665;51.368;6.782;2023-01-28T04:32:48;102610.06;;;0.81;100.00
9257;BME280;4665;51.368;6.782;2023-01-28T04:35:17;102585.94;;;0.70;100.00
9257;BME280;4665;51.368;6.782;2023-01-28T04:37:43;102595.38;;;0.76;100.00
9257;BME280;4665;51.368;6.782;2023-01-28T04:40:10;102595.47;;;0.73;100.00
9257;BME280;4665;51.368;6.782;2023-01-28T04:42:36;102587.03;;;0.63;100.00
9257;BME280;4665;51.368;6.782;2023-01-28T04:45:02;102584.47;;;0.60;100.00
9257;BME280;4665;51.368;6.782;2023-01-28T04:47:27;102596.59;;;0.64;100.00
9257;BME280;4665;51.368;6.782;2023-01-28T04:49:53;102581.91;;;0.58;100.00
9257;BME280;4665;51.368;6.782;2023-01-28T04:52:18;102583.72;;;0.56;100.00
9257;BME280;4665;51.368;6.782;2023-01-28T04:54:44;102585.34;;;0.60;100.00
9257;BME280;4665;51.368;6.782;2023-01-28T04:57:09;102580.16;;;0.59;100.00
9257;BME280;4665;51.368;6.782;2023-01-28T04:59:34;102584.44;;;0.61;100.00
9257;BME280;4665;51.368;6.782;2023-01-28T05:02:00;102583.84;;;0.52;100.00
9257;BME280;4665;51.368;6.782;2023-01-28T05:04:25;102588.13;;;0.56;100.00
9257;BME280;4665;51.368;6.782;2023-01-28T05:06:51;102572.66;;;0.47;100.00
9257;BME280;4665;51.368;6.782;2023-01-28T05:09:16;102570.03;;;0.47;100.00
9257;BME280;4665;51.368;6.782;2023-01-28T05:11:42;102569.00;;;0.51;100.00
9257;BME280;4665;51.368;6.782;2023-01-28T05:14:07;102568.28;;;0.46;100.00
9257;BME280;4665;51.368;6.782;2023-01-28T05:16:33;102564.81;;;0.45;100.00
9257;BME280;4665;51.368;6.782;2023-01-28T05:19:00;102570.03;;;0.47;100.00
9257;BME280;4665;51.368;6.782;2023-01-28T05:21:26;102589.84;;;0.55;100.00
9257;BME280;4665;51.368;6.782;2023-01-28T05:23:51;102595.06;;;0.57;100.00
9257;BME280;4665;51.368;6.782;2023-01-28T05:26:17;102565.69;;;0.44;100.00
9257;BME280;4665;51.368;6.782;2023-01-28T05:28:42;102585.44;;;0.57;100.00
9257;BME280;4665;51.368;6.782;2023-01-28T05:31:08;102576.16;;;0.46;100.00
9257;BME280;4665;51.368;6.782;2023-01-28T05:33:35;102582.22;;;0.48;100.00
9257;BME280;4665;51.368;6.782;2023-01-28T05:36:01;102585.75;;;0.47;100.00
9257;BME280;4665;51.368;6.782;2023-01-28T05:38:26;102605.81;;;0.48;100.00
9257;BME280;4665;51.368;6.782;2023-01-28T05:40:51;102591.31;;;0.36;100.00
9257;BME280;4665;51.368;6.782;2023-01-28T05:43:17;102608.75;;;0.37;100.00
9257;BME280;4665;51.368;6.782;2023-01-28T05:45:42;102607.88;;;0.38;100.00
9257;BME280;4665;51.368;6.782;2023-01-28T05:48:08;102602.63;;;0.38;100.00
9257;BME280;4665;51.368;6.782;2023-01-28T05:50:33;102591.47;;;0.30;100.00
9257;BME280;4665;51.368;6.782;2023-01-28T05:52:58;102603.63;;;0.32;100.00
9257;BME280;4665;51.368;6.782;2023-01-28T05:55:24;102625.25;;;0.42;100.00
9257;BME280;4665;51.368;6.782;2023-01-28T05:57:51;102625.28;;;0.40;100.00
9257;BME280;4665;51.368;6.782;2023-01-28T06:00:16;102615.03;;;0.31;100.00
9257;BME280;4665;51.368;6.782;2023-01-28T06:02:42;102625.38;;;0.37;100.00
9257;BME280;4665;51.368;6.782;2023-01-28T06:05:08;102629.78;;;0.35;100.00
9257;BME280;4665;51.368;6.782;2023-01-28T06:07:33;102608.16;;;0.27;100.00
9257;BME280;4665;51.368;6.782;2023-01-28T06:09:59;102627.19;;;0.34;100.00
9257;BME280;4665;51.368;6.782;2023-01-28T06:12:24;102616.00;;;0.29;100.00
9257;BME280;4665;51.368;6.782;2023-01-28T06:14:50;102602.16;;;0.24;100.00
9257;BME280;4665;51.368;6.782;2023-01-28T06:17:15;102621.19;;;0.30;100.00
9257;BME280;4665;51.368;6.782;2023-01-28T06:19:41;102624.75;;;0.28;100.00
9257;BME280;4665;51.368;6.782;2023-01-28T06:22:06;102625.63;;;0.28;100.00
9257;BME280;4665;51.368;6.782;2023-01-28T06:24:31;102625.53;;;0.31;100.00
9257;BME280;4665;51.368;6.782;2023-01-28T06:26:57;102614.22;;;0.29;100.00
9257;BME280;4665;51.368;6.782;2023-01-28T06:29:22;102623.63;;;0.36;100.00
9257;BME280;4665;51.368;6.782;2023-01-28T06:31:48;102618.63;;;0.29;100.00
9257;BME280;4665;51.368;6.782;2023-01-28T06:34:13;102616.84;;;0.29;100.00
9257;BME280;4665;51.368;6.782;2023-01-28T06:36:39;102635.75;;;0.40;100.00
9257;BME280;4665;51.368;6.782;2023-01-28T06:39:04;102625.31;;;0.39;100.00
9257;BME280;4665;51.368;6.782;2023-01-28T06:41:30;102621.97;;;0.34;100.00
9257;BME280;4665;51.368;6.782;2023-01-28T06:43:55;102633.13;;;0.40;100.00
9257;BME280;4665;51.368;6.782;2023-01-28T06:46:21;102627.31;;;0.31;100.00
9257;BME280;4665;51.368;6.782;2023-01-28T06:48:46;102628.41;;;0.22;100.00
9257;BME280;4665;51.368;6.782;2023-01-28T06:51:11;102610.16;;;0.19;100.00
9257;BME280;4665;51.368;6.782;2023-01-28T06:53:37;102614.25;;;0.28;100.00
9257;BME280;4665;51.368;6.782;2023-01-28T06:56:02;102628.03;;;0.36;100.00
9257;BME280;4665;51.368;6.782;2023-01-28T06:58:28;102620.19;;;0.34;100.00
9257;BME280;4665;51.368;6.782;2023-01-28T07:00:53;102625.28;;;0.40;100.00
9257;BME280;4665;51.368;6.782;2023-01-28T07:03:19;102609.94;;;0.27;100.00
9257;BME280;4665;51.368;6.782;2023-01-28T07:05:44;102622.09;;;0.29;100.00
9257;BME280;4665;51.368;6.782;2023-01-28T07:08:10;102619.84;;;0.15;100.00
9257;BME280;4665;51.368;6.782;2023-01-28T07:10:35;102643.22;;;0.23;100.00
9257;BME280;4665;51.368;6.782;2023-01-28T07:13:01;102638.16;;;0.17;100.00
9257;BME280;4665;51.368;6.782;2023-01-28T07:15:28;102639.88;;;0.18;100.00
9257;BME280;4665;51.368;6.782;2023-01-28T07:17:54;102642.59;;;0.15;100.00
9257;BME280;4665;51.368;6.782;2023-01-28T07:20:19;102620.28;;;0.00;100.00
9257;BME280;4665;51.368;6.782;2023-01-28T07:22:45;102649.59;;;0.14;100.00
9257;BME280;4665;51.368;6.782;2023-01-28T07:25:12;102642.59;;;0.15;100.00
9257;BME280;4665;51.368;6.782;2023-01-28T07:27:38;102644.28;;;0.16;100.00
9257;BME280;4665;51.368;6.782;2023-01-28T07:30:04;102627.97;;;0.06;100.00
9257;BME280;4665;51.368;6.782;2023-01-28T07:32:30;102627.09;;;0.07;100.00
9257;BME280;4665;51.368;6.782;2023-01-28T07:34:55;102618.53;;;0.01;100.00
9257;BME280;4665;51.368;6.782;2023-01-28T07:37:20;102634.84;;;0.10;100.00
9257;BME280;4665;51.368;6.782;2023-01-28T07:39:46;102623.56;;;0.07;100.00
9257;BME280;4665;51.368;6.782;2023-01-28T07:42:11;102623.50;;;0.10;100.00
9257;BME280;4665;51.368;6.782;2023-01-28T07:44:37;102622.50;;;0.14;100.00
9257;BME280;4665;51.368;6.782;2023-01-28T07:47:03;102628.63;;;0.14;100.00
9257;BME280;4665;51.368;6.782;2023-01-28T07:49:29;102637.19;;;0.21;100.00
9257;BME280;4665;51.368;6.782;2023-01-28T07:51:54;102639.88;;;0.18;100.00
9257;BME280;4665;51.368;6.782;2023-01-28T07:54:20;102626.03;;;0.13;100.00
9257;BME280;4665;51.368;6.782;2023-01-28T07:56:45;102627.84;;;0.11;100.00
9257;BME280;4665;51.368;6.782;2023-01-28T07:59:11;102652.72;;;0.27;100.00
9257;BME280;4665;51.368;6.782;2023-01-28T08:01:36;102659.84;;;0.24;100.00
9257;BME280;4665;51.368;6.782;2023-01-28T08:04:02;102660.00;;;0.17;100.00
9257;BME280;4665;51.368;6.782;2023-01-28T08:06:28;102677.38;;;0.22;100.00
9257;BME280;4665;51.368;6.782;2023-01-28T08:08:53;102679.13;;;0.21;100.00
9257;BME280;4665;51.368;6.782;2023-01-28T08:11:19;102672.97;;;0.22;100.00
9257;BME280;4665;51.368;6.782;2023-01-28T08:13:45;102674.75;;;0.22;100.00
9257;BME280;4665;51.368;6.782;2023-01-28T08:16:10;102678.06;;;0.28;100.00
9257;BME280;4665;51.368;6.782;2023-01-28T08:18:36;102693.63;;;0.34;100.00
9257;BME280;4665;51.368;6.782;2023-01-28T08:21:01;102692.66;;;0.37;100.00
9257;BME280;4665;51.368;6.782;2023-01-28T08:23:27;102691.81;;;0.36;100.00
9257;BME280;4665;51.368;6.782;2023-01-28T08:25:53;102685.75;;;0.34;100.00
9257;BME280;4665;51.368;6.782;2023-01-28T08:28:20;102683.13;;;0.34;100.00
9257;BME280;4665;51.368;6.782;2023-01-28T08:30:46;102684.88;;;0.34;100.00
9257;BME280;4665;51.368;6.782;2023-01-28T08:33:16;102681.53;;;0.29;100.00
9257;BME280;4665;51.368;6.782;2023-01-28T08:35:42;102687.50;;;0.34;100.00
9257;BME280;4665;51.368;6.782;2023-01-28T08:38:09;102682.38;;;0.31;100.00
9257;BME280;4665;51.368;6.782;2023-01-28T08:40:35;102691.91;;;0.33;100.00
9257;BME280;4665;51.368;6.782;2023-01-28T08:43:01;102705.66;;;0.41;100.00
9257;BME280;4665;51.368;6.782;2023-01-28T08:45:27;102712.53;;;0.46;100.00
9257;BME280;4665;51.368;6.782;2023-01-28T08:47:58;102716.94;;;0.45;100.00
9257;BME280;4665;51.368;6.782;2023-01-28T08:50:26;102730.94;;;0.44;100.00
9257;BME280;4665;51.368;6.782;2023-01-28T08:53:00;102714.69;;;0.31;100.00
9257;BME280;4665;51.368;6.782;2023-01-28T08:55:29;102730.25;;;0.37;100.00
9257;BME280;4665;51.368;6.782;2023-01-28T08:57:54;102725.09;;;0.34;100.00
9257;BME280;4665;51.368;6.782;2023-01-28T09:00:20;102739.81;;;0.40;100.00
9257;BME280;4665;51.368;6.782;2023-01-28T09:02:49;102742.59;;;0.34;100.00
9257;BME280;4665;51.368;6.782;2023-01-28T09:05:21;102747.94;;;0.29;100.00
9257;BME280;4665;51.368;6.782;2023-01-28T09:07:47;102760.09;;;0.33;100.00
9257;BME280;4665;51.368;6.782;2023-01-28T09:10:13;102735.06;;;0.22;100.00
9257;BME280;4665;51.368;6.782;2023-01-28T09:12:42;102756.53;;;0.34;100.00
9257;BME280;4665;51.368;6.782;2023-01-28T09:15:11;102744.59;;;0.24;100.00
9257;BME280;4665;51.368;6.782;2023-01-28T09:17:43;102742.19;;;0.16;100.00
9257;BME280;4665;51.368;6.782;2023-01-28T09:20:12;102749.09;;;0.19;100.00
9257;BME280;4665;51.368;6.782;2023-01-28T09:22:38;102768.84;;;0.32;100.00
9257;BME280;4665;51.368;6.782;2023-01-28T09:25:20;102764.50;;;0.31;100.00
9257;BME280;4665;51.368;6.782;2023-01-28T09:27:45;102756.75;;;0.27;100.00
9257;BME280;4665;51.368;6.782;2023-01-28T09:30:11;102755.19;;;0.19;100.00
9257;BME280;4665;51.368;6.782;2023-01-28T09:32:37;102763.03;;;0.21;100.00
9257;BME280;4665;51.368;6.782;2023-01-28T09:35:03;102765.53;;;0.26;100.00
9257;BME280;4665;51.368;6.782;2023-01-28T09:37:29;102772.50;;;0.25;100.00
9257;BME280;4665;51.368;6.782;2023-01-28T09:39:54;102766.31;;;0.28;100.00
9257;BME280;4665;51.368;6.782;2023-01-28T09:52:50;102775.72;;;0.36;100.00
9257;BME280;4665;51.368;6.782;2023-01-28T09:55:40;102778.34;;;0.36;100.00
9257;BME280;4665;51.368;6.782;2023-01-28T09:58:13;102766.31;;;0.29;100.00
9257;BME280;4665;51.368;6.782;2023-01-28T10:00:49;102779.09;;;0.41;100.00
9257;BME280;4665;51.368;6.782;2023-01-28T10:14:12;102785.13;;;0.45;100.00
9257;BME280;4665;51.368;6.782;2023-01-28T10:16:53;102786.09;;;0.41;100.00
9257;BME280;4665;51.368;6.782;2023-01-28T10:19:24;102770.34;;;0.43;100.00
9257;BME280;4665;51.368;6.782;2023-01-28T10:22:21;102782.63;;;0.40;100.00
9257;BME280;4665;51.368;6.782;2023-01-28T10:24:53;102748.97;;;0.24;100.00
9257;BME280;4665;51.368;6.782;2023-01-28T10:27:25;102748.97;;;0.24;100.00
9257;BME280;4665;51.368;6.782;2023-01-28T10:29:52;102739.50;;;0.18;100.00
9257;BME280;4665;51.368;6.782;2023-01-28T10:32:36;102734.25;;;0.18;100.00
9257;BME280;4665;51.368;6.782;2023-01-28T10:35:03;102751.63;;;0.22;100.00
9257;BME280;4665;51.368;6.782;2023-01-28T10:37:37;102747.53;;;0.12;100.00
9257;BME280;4665;51.368;6.782;2023-01-28T10:40:04;102775.97;;;0.27;100.00
9257;BME280;4665;51.368;6.782;2023-01-28T10:42:34;102756.97;;;0.19;100.00
9257;BME280;4665;51.368;6.782;2023-01-28T10:45:27;102752.53;;;0.21;100.00
9257;BME280;4665;51.368;6.782;2023-01-28T10:47:54;102761.03;;;0.31;100.00
9257;BME280;4665;51.368;6.782;2023-01-28T10:50:26;102764.50;;;0.31;100.00
9257;BME280;4665;51.368;6.782;2023-01-28T10:53:04;102781.69;;;0.43;100.00
9257;BME280;4665;51.368;6.782;2023-01-28T10:55:53;102784.84;;;0.56;100.00
9257;BME280;4665;51.368;6.782;2023-01-28T10:58:23;102768.28;;;0.54;100.00
9257;BME280;4665;51.368;6.782;2023-01-28T11:00:58;102771.63;;;0.60;100.00
9257;BME280;4665;51.368;6.782;2023-01-28T11:03:24;102778.69;;;0.57;100.00
9257;BME280;4665;51.368;6.782;2023-01-28T11:05:54;102787.28;;;0.62;100.00
9257;BME280;4665;51.368;6.782;2023-01-28T11:08:22;102779.50;;;0.59;100.00
9257;BME280;4665;51.368;6.782;2023-01-28T11:10:49;102788.13;;;0.64;100.00
9257;BME280;4665;51.368;6.782;2023-01-28T11:13:21;102777.63;;;0.64;100.00
9257;BME280;4665;51.368;6.782;2023-01-28T11:16:02;102803.56;;;0.75;100.00
9257;BME280;4665;51.368;6.782;2023-01-28T11:18:30;102800.34;;;0.65;100.00
9257;BME280;4665;51.368;6.782;2023-01-28T11:21:03;102804.91;;;0.57;100.00
9257;BME280;4665;51.368;6.782;2023-01-28T11:23:39;102798.94;;;0.52;100.00
9257;BME280;4665;51.368;6.782;2023-01-28T11:26:17;102796.38;;;0.49;100.00
9257;BME280;4665;51.368;6.782;2023-01-28T11:28:44;102779.97;;;0.42;100.00
9257;BME280;4665;51.368;6.782;2023-01-28T11:31:16;102779.84;;;0.47;100.00
9257;BME280;4665;51.368;6.782;2023-01-28T11:36:21;102768.34;;;0.51;100.00
9257;BME280;4665;51.368;6.782;2023-01-28T11:38:56;102774.28;;;0.57;100.00
9257;BME280;4665;51.368;6.782;2023-01-28T11:55:36;102789.75;;;0.68;100.00
9257;BME280;4665;51.368;6.782;2023-01-28T11:58:20;102788.84;;;0.69;100.00
9257;BME280;4665;51.368;6.782;2023-01-28T12:01:11;102782.72;;;0.70;100.00
9257;BME280;4665;51.368;6.782;2023-01-28T12:09:32;102773.31;;;0.61;100.00
9257;BME280;4665;51.368;6.782;2023-01-28T12:12:19;102760.19;;;0.61;100.00
9257;BME280;4665;51.368;6.782;2023-01-28T12:20:27;102746.22;;;0.61;100.00
9257;BME280;4665;51.368;6.782;2023-01-28T12:26:16;102734.56;;;0.71;100.00
9257;BME280;4665;51.368;6.782;2023-01-28T12:28:59;102733.72;;;0.71;100.00
9257;BME280;4665;51.368;6.782;2023-01-28T12:43:44;102702.91;;;0.77;100.00
9257;BME280;4665;51.368;6.782;2023-01-28T12:48:52;102653.56;;;0.60;100.00
9257;BME280;4665;51.368;6.782;2023-01-28T12:51:29;102644.53;;;0.69;100.00
9257;BME280;4665;51.368;6.782;2023-01-28T12:54:05;102623.38;;;0.75;100.00
9257;BME280;4665;51.368;6.782;2023-01-28T12:56:39;102614.53;;;0.78;100.00
9257;BME280;4665;51.368;6.782;2023-01-28T12:59:14;102645.72;;;0.89;100.00
9257;BME280;4665;51.368;6.782;2023-01-28T13:01:43;102639.66;;;0.87;100.00
9257;BME280;4665;51.368;6.782;2023-01-28T13:07:14;102645.47;;;0.68;100.00
9257;BME280;4665;51.368;6.782;2023-01-28T13:12:39;102686.13;;;0.83;100.00
9257;BME280;4665;51.368;6.782;2023-01-28T13:15:14;102667.06;;;0.76;100.00
9257;BME280;4665;51.368;6.782;2023-01-28T13:20:45;102694.28;;;1.02;100.00
9257;BME280;4665;51.368;6.782;2023-01-28T13:26:08;102671.72;;;0.96;100.00
9257;BME280;4665;51.368;6.782;2023-01-28T13:28:34;102671.09;;;0.88;100.00
9257;BME280;4665;51.368;6.782;2023-01-28T13:31:05;102673.72;;;0.88;100.00
9257;BME280;4665;51.368;6.782;2023-01-28T13:33:37;102696.28;;;0.95;100.00
9257;BME280;4665;51.368;6.782;2023-01-28T13:36:26;102706.00;;;0.92;100.00
9257;BME280;4665;51.368;6.782;2023-01-28T13:39:23;102686.69;;;0.93;100.00
9257;BME280;4665;51.368;6.782;2023-01-28T13:41:53;102680.00;;;0.82;100.00
9257;BME280;4665;51.368;6.782;2023-01-28T13:44:28;102683.34;;;0.88;100.00
9257;BME280;4665;51.368;6.782;2023-01-28T13:49:41;102677.84;;;0.97;100.00
9257;BME280;4665;51.368;6.782;2023-01-28T13:55:03;102694.84;;;1.13;100.00
9257;BME280;4665;51.368;6.782;2023-01-28T14:09:16;102703.50;;;1.17;100.00
9257;BME280;4665;51.368;6.782;2023-01-28T14:12:24;102706.69;;;1.26;100.00
9257;BME280;4665;51.368;6.782;2023-01-28T14:15:06;102696.06;;;1.30;100.00
9257;BME280;4665;51.368;6.782;2023-01-28T14:17:49;102693.38;;;1.33;100.00
9257;BME280;4665;51.368;6.782;2023-01-28T14:20:40;102685.56;;;1.30;100.00
9257;BME280;4665;51.368;6.782;2023-01-28T14:23:21;102675.34;;;1.20;100.00
9257;BME280;4665;51.368;6.782;2023-01-28T14:31:34;102633.84;;;1.05;100.00
9257;BME280;4665;51.368;6.782;2023-01-28T14:34:11;102629.44;;;1.05;100.00
9257;BME280;4665;51.368;6.782;2023-01-28T14:36:43;102630.41;;;1.03;100.00
9257;BME280;4665;51.368;6.782;2023-01-28T14:39:20;102647.44;;;1.18;100.00
9257;BME280;4665;51.368;6.782;2023-01-28T14:41:48;102629.13;;;1.16;100.00
9257;BME280;4665;51.368;6.782;2023-01-28T14:55:18;102617.81;;;1.41;100.00
9257;BME280;4665;51.368;6.782;2023-01-28T14:57:53;102629.97;;;1.43;100.00
9257;BME280;4665;51.368;6.782;2023-01-28T15:00:24;102654.25;;;1.52;100.00
9257;BME280;4665;51.368;6.782;2023-01-28T15:02:49;102628.53;;;1.35;100.00
9257;BME280;4665;51.368;6.782;2023-01-28T15:05:26;102634.66;;;1.34;100.00
9257;BME280;4665;51.368;6.782;2023-01-28T15:07:52;102632.50;;;1.20;100.00
9257;BME280;4665;51.368;6.782;2023-01-28T15:10:19;102653.16;;;1.31;100.00
9257;BME280;4665;51.368;6.782;2023-01-28T15:12:51;102643.84;;;1.20;100.00
9257;BME280;4665;51.368;6.782;2023-01-28T15:15:50;102655.56;;;1.10;100.00
9257;BME280;4665;51.368;6.782;2023-01-28T15:18:30;102676.44;;;1.13;100.00
9257;BME280;4665;51.368;6.782;2023-01-28T15:20:56;102668.19;;;0.97;100.00
9257;BME280;4665;51.368;6.782;2023-01-28T15:23:36;102676.31;;;0.90;100.00
9257;BME280;4665;51.368;6.782;2023-01-28T15:26:24;102670.59;;;0.75;100.00
9257;BME280;4665;51.368;6.782;2023-01-28T15:28:51;102683.56;;;0.81;100.00
9257;BME280;4665;51.368;6.782;2023-01-28T15:34:10;102672.97;;;0.84;100.00
9257;BME280;4665;51.368;6.782;2023-01-28T15:36:37;102678.56;;;0.72;100.00
9257;BME280;4665;51.368;6.782;2023-01-28T15:39:03;102694.31;;;0.72;100.00
9257;BME280;4665;51.368;6.782;2023-01-28T15:41:38;102702.34;;;0.66;100.00
9257;BME280;4665;51.368;6.782;2023-01-28T15:44:05;102711.00;;;0.70;100.00
9257;BME280;4665;51.368;6.782;2023-01-28T15:46:30;102713.34;;;0.79;100.00